sensor_id;sensor_type;location;lat;lon;timestamp;P1;durP1;ratioP1;P2;durP2;ratioP2
74904;SDS011;63465;50.862;6.220;2023-03-23T00:02:13;2.47;;;2.27;;
74904;SDS011;63465;50.862;6.220;2023-03-23T00:04:41;3.03;;;2.80;;
74904;SDS011;63465;50.862;6.220;2023-03-23T00:07:08;2.70;;;2.43;;
74904;SDS011;63465;50.862;6.220;2023-03-23T00:09:37;2.87;;;2.63;;
74904;SDS011;63465;50.862;6.220;2023-03-23T00:12:08;3.93;;;2.60;;
74904;SDS011;63465;50.862;6.220;2023-03-23T00:14:37;2.80;;;2.60;;
74904;SDS011;63465;50.862;6.220;2023-03-23T00:17:08;3.50;;;2.93;;
74904;SDS011;63465;50.862;6.220;2023-03-23T00:19:36;2.80;;;2.40;;
74904;SDS011;63465;50.862;6.220;2023-03-23T00:22:11;6.87;;;2.87;;
74904;SDS011;63465;50.862;6.220;2023-03-23T00:24:38;5.10;;;2.70;;
74904;SDS011;63465;50.862;6.220;2023-03-23T00:27:05;2.70;;;2.47;;
74904;SDS011;63465;50.862;6.220;2023-03-23T00:29:35;4.03;;;2.57;;
74904;SDS011;63465;50.862;6.220;2023-03-23T00:32:02;3.00;;;2.50;;
74904;SDS011;63465;50.862;6.220;2023-03-23T00:34:31;3.57;;;2.57;;
74904;SDS011;63465;50.862;6.220;2023-03-23T00:36:59;2.53;;;2.33;;
74904;SDS011;63465;50.862;6.220;2023-03-23T00:39:27;2.90;;;2.70;;
74904;SDS011;63465;50.862;6.220;2023-03-23T00:41:54;3.13;;;2.50;;
74904;SDS011;63465;50.862;6.220;2023-03-23T00:44:26;2.77;;;2.63;;
74904;SDS011;63465;50.862;6.220;2023-03-23T00:46:54;3.37;;;2.10;;
74904;SDS011;63465;50.862;6.220;2023-03-23T00:49:22;2.63;;;2.40;;
74904;SDS011;63465;50.862;6.220;2023-03-23T00:51:51;6.63;;;2.40;;
74904;SDS011;63465;50.862;6.220;2023-03-23T00:54:18;3.20;;;2.80;;
74904;SDS011;63465;50.862;6.220;2023-03-23T00:56:45;5.80;;;2.70;;
74904;SDS011;63465;50.862;6.220;2023-03-23T00:59:11;2.23;;;2.13;;
74904;SDS011;63465;50.862;6.220;2023-03-23T01:01:38;3.17;;;2.87;;
74904;SDS011;63465;50.862;6.220;2023-03-23T01:04:07;2.83;;;2.63;;
74904;SDS011;63465;50.862;6.220;2023-03-23T01:06:34;3.20;;;2.90;;
74904;SDS011;63465;50.862;6.220;2023-03-23T01:09:04;3.23;;;2.57;;
74904;SDS011;63465;50.862;6.220;2023-03-23T01:11:31;3.07;;;2.90;;
74904;SDS011;63465;50.862;6.220;2023-03-23T01:13:58;3.30;;;2.73;;
74904;SDS011;63465;50.862;6.220;2023-03-23T01:16:25;3.93;;;3.60;;
74904;SDS011;63465;50.862;6.220;2023-03-23T01:18:52;2.83;;;2.63;;
74904;SDS011;63465;50.862;6.220;2023-03-23T01:21:21;3.37;;;3.17;;
74904;SDS011;63465;50.862;6.220;2023-03-23T01:23:50;3.20;;;2.70;;
74904;SDS011;63465;50.862;6.220;2023-03-23T01:26:18;3.03;;;2.83;;
74904;SDS011;63465;50.862;6.220;2023-03-23T01:28:46;3.80;;;3.40;;
74904;SDS011;63465;50.862;6.220;2023-03-23T01:31:13;2.67;;;2.27;;
74904;SDS011;63465;50.862;6.220;2023-03-23T01:33:41;3.33;;;2.60;;
74904;SDS011;63465;50.862;6.220;2023-03-23T01:36:10;3.07;;;2.87;;
74904;SDS011;63465;50.862;6.220;2023-03-23T01:38:41;5.27;;;2.57;;
74904;SDS011;63465;50.862;6.220;2023-03-23T01:41:08;3.50;;;2.73;;
74904;SDS011;63465;50.862;6.220;2023-03-23T01:43:35;2.90;;;2.40;;
74904;SDS011;63465;50.862;6.220;2023-03-23T01:46:03;3.00;;;2.57;;
74904;SDS011;63465;50.862;6.220;2023-03-23T01:48:30;2.57;;;2.37;;
74904;SDS011;63465;50.862;6.220;2023-03-23T01:51:02;4.63;;;2.90;;
74904;SDS011;63465;50.862;6.220;2023-03-23T01:53:32;2.37;;;2.17;;
74904;SDS011;63465;50.862;6.220;2023-03-23T01:56:05;2.60;;;2.27;;
74904;SDS011;63465;50.862;6.220;2023-03-23T01:58:37;2.67;;;2.47;;
74904;SDS011;63465;50.862;6.220;2023-03-23T02:01:06;2.10;;;2.00;;
74904;SDS011;63465;50.862;6.220;2023-03-23T02:03:36;10.97;;;2.30;;
74904;SDS011;63465;50.862;6.220;2023-03-23T02:06:05;3.60;;;2.20;;
74904;SDS011;63465;50.862;6.220;2023-03-23T02:08:37;3.40;;;1.93;;
74904;SDS011;63465;50.862;6.220;2023-03-23T02:11:12;1.83;;;1.73;;
74904;SDS011;63465;50.862;6.220;2023-03-23T02:13:40;1.80;;;1.70;;
74904;SDS011;63465;50.862;6.220;2023-03-23T02:16:09;4.20;;;2.20;;
74904;SDS011;63465;50.862;6.220;2023-03-23T02:18:45;2.20;;;2.10;;
74904;SDS011;63465;50.862;6.220;2023-03-23T02:21:27;3.00;;;2.00;;
74904;SDS011;63465;50.862;6.220;2023-03-23T02:24:28;2.00;;;1.90;;
74904;SDS011;63465;50.862;6.220;2023-03-23T02:27:03;1.90;;;1.80;;
74904;SDS011;63465;50.862;6.220;2023-03-23T02:32:32;2.20;;;1.97;;
74904;SDS011;63465;50.862;6.220;2023-03-23T02:35:33;2.10;;;2.00;;
74904;SDS011;63465;50.862;6.220;2023-03-23T02:38:04;3.53;;;1.73;;
74904;SDS011;63465;50.862;6.220;2023-03-23T02:40:36;2.97;;;1.87;;
74904;SDS011;63465;50.862;6.220;2023-03-23T02:43:06;1.93;;;1.83;;
74904;SDS011;63465;50.862;6.220;2023-03-23T02:45:35;1.87;;;1.77;;
74904;SDS011;63465;50.862;6.220;2023-03-23T02:48:04;2.00;;;1.90;;
74904;SDS011;63465;50.862;6.220;2023-03-23T02:50:40;3.33;;;2.00;;
74904;SDS011;63465;50.862;6.220;2023-03-23T02:53:10;1.90;;;1.80;;
74904;SDS011;63465;50.862;6.220;2023-03-23T02:55:41;2.00;;;1.90;;
74904;SDS011;63465;50.862;6.220;2023-03-23T02:58:15;2.10;;;2.00;;
74904;SDS011;63465;50.862;6.220;2023-03-23T03:00:42;2.90;;;2.00;;
74904;SDS011;63465;50.862;6.220;2023-03-23T03:03:11;1.80;;;1.70;;
74904;SDS011;63465;50.862;6.220;2023-03-23T03:05:43;1.90;;;1.80;;
74904;SDS011;63465;50.862;6.220;2023-03-23T03:08:18;3.60;;;1.70;;
74904;SDS011;63465;50.862;6.220;2023-03-23T03:10:52;4.57;;;2.20;;
74904;SDS011;63465;50.862;6.220;2023-03-23T03:13:27;2.03;;;1.93;;
74904;SDS011;63465;50.862;6.220;2023-03-23T03:16:05;4.10;;;1.90;;
74904;SDS011;63465;50.862;6.220;2023-03-23T03:18:37;2.17;;;1.83;;
74904;SDS011;63465;50.862;6.220;2023-03-23T03:21:12;2.20;;;2.00;;
74904;SDS011;63465;50.862;6.220;2023-03-23T03:23:44;2.50;;;2.30;;
74904;SDS011;63465;50.862;6.220;2023-03-23T03:26:14;2.33;;;2.20;;
74904;SDS011;63465;50.862;6.220;2023-03-23T03:28:50;2.23;;;2.13;;
74904;SDS011;63465;50.862;6.220;2023-03-23T03:31:20;2.00;;;1.90;;
74904;SDS011;63465;50.862;6.220;2023-03-23T03:33:52;2.67;;;2.17;;
74904;SDS011;63465;50.862;6.220;2023-03-23T03:36:22;2.10;;;2.00;;
74904;SDS011;63465;50.862;6.220;2023-03-23T03:38:52;4.10;;;1.80;;
74904;SDS011;63465;50.862;6.220;2023-03-23T03:41:22;2.20;;;2.10;;
74904;SDS011;63465;50.862;6.220;2023-03-23T03:43:50;2.33;;;2.23;;
74904;SDS011;63465;50.862;6.220;2023-03-23T03:46:16;2.27;;;2.17;;
74904;SDS011;63465;50.862;6.220;2023-03-23T03:48:43;2.50;;;2.30;;
74904;SDS011;63465;50.862;6.220;2023-03-23T03:51:10;2.73;;;2.30;;
74904;SDS011;63465;50.862;6.220;2023-03-23T03:53:42;2.50;;;2.30;;
74904;SDS011;63465;50.862;6.220;2023-03-23T03:56:09;3.00;;;2.60;;
74904;SDS011;63465;50.862;6.220;2023-03-23T03:58:42;2.27;;;2.17;;
74904;SDS011;63465;50.862;6.220;2023-03-23T04:01:18;2.87;;;2.33;;
74904;SDS011;63465;50.862;6.220;2023-03-23T04:03:47;2.70;;;2.50;;
74904;SDS011;63465;50.862;6.220;2023-03-23T04:06:23;2.43;;;2.10;;
74904;SDS011;63465;50.862;6.220;2023-03-23T04:08:54;2.27;;;2.17;;
74904;SDS011;63465;50.862;6.220;2023-03-23T04:11:21;2.70;;;2.10;;
74904;SDS011;63465;50.862;6.220;2023-03-23T04:13:48;2.40;;;2.30;;
74904;SDS011;63465;50.862;6.220;2023-03-23T04:16:30;2.10;;;2.00;;
74904;SDS011;63465;50.862;6.220;2023-03-23T04:18:59;2.30;;;2.10;;
74904;SDS011;63465;50.862;6.220;2023-03-23T04:21:27;2.37;;;2.17;;
74904;SDS011;63465;50.862;6.220;2023-03-23T04:23:56;3.70;;;2.40;;
74904;SDS011;63465;50.862;6.220;2023-03-23T04:26:24;3.40;;;2.60;;
74904;SDS011;63465;50.862;6.220;2023-03-23T04:28:54;5.73;;;2.50;;
74904;SDS011;63465;50.862;6.220;2023-03-23T04:31:33;2.60;;;2.40;;
74904;SDS011;63465;50.862;6.220;2023-03-23T04:34:20;2.40;;;2.10;;
74904;SDS011;63465;50.862;6.220;2023-03-23T04:36:49;2.33;;;2.13;;
74904;SDS011;63465;50.862;6.220;2023-03-23T04:39:23;2.63;;;2.33;;
74904;SDS011;63465;50.862;6.220;2023-03-23T04:41:51;2.37;;;2.27;;
74904;SDS011;63465;50.862;6.220;2023-03-23T04:44:39;2.50;;;2.30;;
74904;SDS011;63465;50.862;6.220;2023-03-23T04:47:12;5.03;;;2.47;;
74904;SDS011;63465;50.862;6.220;2023-03-23T04:49:48;3.83;;;2.63;;
74904;SDS011;63465;50.862;6.220;2023-03-23T04:52:22;2.40;;;2.20;;
74904;SDS011;63465;50.862;6.220;2023-03-23T04:54:55;2.67;;;2.20;;
74904;SDS011;63465;50.862;6.220;2023-03-23T04:57:22;7.23;;;2.60;;
74904;SDS011;63465;50.862;6.220;2023-03-23T05:00:13;2.43;;;2.30;;
74904;SDS011;63465;50.862;6.220;2023-03-23T05:02:46;5.27;;;2.57;;
74904;SDS011;63465;50.862;6.220;2023-03-23T05:05:17;2.10;;;2.00;;
74904;SDS011;63465;50.862;6.220;2023-03-23T05:07:46;3.80;;;2.60;;
74904;SDS011;63465;50.862;6.220;2023-03-23T05:10:17;3.13;;;2.20;;
74904;SDS011;63465;50.862;6.220;2023-03-23T05:12:45;1.97;;;1.87;;
74904;SDS011;63465;50.862;6.220;2023-03-23T05:15:12;3.20;;;2.37;;
74904;SDS011;63465;50.862;6.220;2023-03-23T05:17:42;2.57;;;2.23;;
74904;SDS011;63465;50.862;6.220;2023-03-23T05:20:14;2.10;;;1.83;;
74904;SDS011;63465;50.862;6.220;2023-03-23T05:22:47;2.70;;;2.10;;
74904;SDS011;63465;50.862;6.220;2023-03-23T05:25:20;2.30;;;2.10;;
74904;SDS011;63465;50.862;6.220;2023-03-23T05:27:56;2.63;;;2.00;;
74904;SDS011;63465;50.862;6.220;2023-03-23T05:30:44;3.50;;;2.20;;
74904;SDS011;63465;50.862;6.220;2023-03-23T05:33:13;1.90;;;1.80;;
74904;SDS011;63465;50.862;6.220;2023-03-23T05:35:57;1.83;;;1.73;;
74904;SDS011;63465;50.862;6.220;2023-03-23T05:38:29;2.87;;;2.03;;
74904;SDS011;63465;50.862;6.220;2023-03-23T05:40:59;2.20;;;2.03;;
74904;SDS011;63465;50.862;6.220;2023-03-23T05:43:29;2.00;;;1.90;;
74904;SDS011;63465;50.862;6.220;2023-03-23T05:46:06;5.50;;;1.97;;
74904;SDS011;63465;50.862;6.220;2023-03-23T05:48:33;2.30;;;2.10;;
74904;SDS011;63465;50.862;6.220;2023-03-23T05:51:01;6.70;;;1.90;;
74904;SDS011;63465;50.862;6.220;2023-03-23T05:53:30;2.43;;;2.23;;
74904;SDS011;63465;50.862;6.220;2023-03-23T05:56:02;3.20;;;1.90;;
74904;SDS011;63465;50.862;6.220;2023-03-23T05:58:48;3.10;;;2.20;;
74904;SDS011;63465;50.862;6.220;2023-03-23T06:01:14;3.90;;;2.10;;
74904;SDS011;63465;50.862;6.220;2023-03-23T06:03:41;6.70;;;2.03;;
74904;SDS011;63465;50.862;6.220;2023-03-23T06:06:17;6.00;;;1.90;;
74904;SDS011;63465;50.862;6.220;2023-03-23T06:09:02;2.30;;;2.13;;
74904;SDS011;63465;50.862;6.220;2023-03-23T06:11:56;1.80;;;1.70;;
74904;SDS011;63465;50.862;6.220;2023-03-23T06:14:40;3.43;;;1.80;;
74904;SDS011;63465;50.862;6.220;2023-03-23T06:17:07;3.93;;;2.40;;
74904;SDS011;63465;50.862;6.220;2023-03-23T06:19:34;1.73;;;1.63;;
74904;SDS011;63465;50.862;6.220;2023-03-23T06:22:07;1.67;;;1.57;;
74904;SDS011;63465;50.862;6.220;2023-03-23T06:24:42;1.40;;;1.40;;
74904;SDS011;63465;50.862;6.220;2023-03-23T06:27:13;2.17;;;1.70;;
74904;SDS011;63465;50.862;6.220;2023-03-23T06:29:42;5.43;;;1.80;;
74904;SDS011;63465;50.862;6.220;2023-03-23T06:32:10;4.30;;;1.80;;
74904;SDS011;63465;50.862;6.220;2023-03-23T06:34:41;2.07;;;1.90;;
74904;SDS011;63465;50.862;6.220;2023-03-23T06:37:38;2.10;;;1.83;;
74904;SDS011;63465;50.862;6.220;2023-03-23T06:40:24;1.50;;;1.40;;
74904;SDS011;63465;50.862;6.220;2023-03-23T06:42:56;2.80;;;1.60;;
74904;SDS011;63465;50.862;6.220;2023-03-23T06:45:39;2.33;;;1.40;;
74904;SDS011;63465;50.862;6.220;2023-03-23T06:48:32;3.53;;;1.73;;
74904;SDS011;63465;50.862;6.220;2023-03-23T06:50:59;1.63;;;1.50;;
74904;SDS011;63465;50.862;6.220;2023-03-23T06:53:28;2.00;;;1.67;;
74904;SDS011;63465;50.862;6.220;2023-03-23T06:55:57;1.77;;;1.67;;
74904;SDS011;63465;50.862;6.220;2023-03-23T06:58:25;1.70;;;1.60;;
74904;SDS011;63465;50.862;6.220;2023-03-23T07:00:53;2.07;;;1.97;;
74904;SDS011;63465;50.862;6.220;2023-03-23T07:03:22;3.60;;;1.70;;
74904;SDS011;63465;50.862;6.220;2023-03-23T07:05:49;3.40;;;1.70;;
74904;SDS011;63465;50.862;6.220;2023-03-23T07:08:19;1.57;;;1.40;;
74904;SDS011;63465;50.862;6.220;2023-03-23T07:10:50;1.70;;;1.60;;
74904;SDS011;63465;50.862;6.220;2023-03-23T07:13:21;1.30;;;1.20;;
74904;SDS011;63465;50.862;6.220;2023-03-23T07:15:55;4.30;;;1.37;;
74904;SDS011;63465;50.862;6.220;2023-03-23T07:18:23;3.73;;;2.00;;
74904;SDS011;63465;50.862;6.220;2023-03-23T07:20:52;3.43;;;1.70;;
74904;SDS011;63465;50.862;6.220;2023-03-23T07:23:23;3.10;;;1.53;;
74904;SDS011;63465;50.862;6.220;2023-03-23T07:25:56;1.40;;;1.30;;
74904;SDS011;63465;50.862;6.220;2023-03-23T07:28:29;2.07;;;1.53;;
74904;SDS011;63465;50.862;6.220;2023-03-23T07:31:04;1.77;;;1.30;;
74904;SDS011;63465;50.862;6.220;2023-03-23T07:33:32;5.33;;;1.40;;
74904;SDS011;63465;50.862;6.220;2023-03-23T07:36:00;1.83;;;1.20;;
74904;SDS011;63465;50.862;6.220;2023-03-23T07:38:27;4.67;;;1.47;;
74904;SDS011;63465;50.862;6.220;2023-03-23T07:40:56;6.63;;;1.60;;
74904;SDS011;63465;50.862;6.220;2023-03-23T07:43:23;1.43;;;1.27;;
74904;SDS011;63465;50.862;6.220;2023-03-23T07:46:10;5.57;;;1.63;;
74904;SDS011;63465;50.862;6.220;2023-03-23T07:48:58;6.67;;;2.20;;
74904;SDS011;63465;50.862;6.220;2023-03-23T07:51:32;6.80;;;2.17;;
74904;SDS011;63465;50.862;6.220;2023-03-23T07:53:59;6.03;;;1.50;;
74904;SDS011;63465;50.862;6.220;2023-03-23T07:56:47;1.60;;;1.50;;
74904;SDS011;63465;50.862;6.220;2023-03-23T07:59:20;2.10;;;1.40;;
74904;SDS011;63465;50.862;6.220;2023-03-23T08:01:49;1.93;;;1.43;;
74904;SDS011;63465;50.862;6.220;2023-03-23T08:04:32;3.17;;;1.43;;
74904;SDS011;63465;50.862;6.220;2023-03-23T08:07:25;2.93;;;1.30;;
74904;SDS011;63465;50.862;6.220;2023-03-23T08:10:01;2.70;;;1.50;;
74904;SDS011;63465;50.862;6.220;2023-03-23T08:12:27;2.60;;;1.73;;
74904;SDS011;63465;50.862;6.220;2023-03-23T08:15:06;5.60;;;1.40;;
74904;SDS011;63465;50.862;6.220;2023-03-23T08:17:54;1.90;;;1.27;;
74904;SDS011;63465;50.862;6.220;2023-03-23T08:20:44;1.73;;;1.60;;
74904;SDS011;63465;50.862;6.220;2023-03-23T08:23:28;1.93;;;1.70;;
74904;SDS011;63465;50.862;6.220;2023-03-23T08:26:25;5.47;;;1.60;;
74904;SDS011;63465;50.862;6.220;2023-03-23T08:29:17;2.50;;;1.60;;
74904;SDS011;63465;50.862;6.220;2023-03-23T08:32:02;1.97;;;1.33;;
74904;SDS011;63465;50.862;6.220;2023-03-23T08:34:31;2.00;;;1.20;;
74904;SDS011;63465;50.862;6.220;2023-03-23T08:37:30;4.87;;;1.20;;
74904;SDS011;63465;50.862;6.220;2023-03-23T08:40:11;2.87;;;1.40;;
74904;SDS011;63465;50.862;6.220;2023-03-23T08:43:08;2.70;;;1.40;;
74904;SDS011;63465;50.862;6.220;2023-03-23T08:45:53;3.30;;;1.60;;
74904;SDS011;63465;50.862;6.220;2023-03-23T08:48:40;1.73;;;1.40;;
74904;SDS011;63465;50.862;6.220;2023-03-23T08:51:36;4.20;;;1.77;;
74904;SDS011;63465;50.862;6.220;2023-03-23T08:54:11;1.73;;;1.30;;
74904;SDS011;63465;50.862;6.220;2023-03-23T08:56:50;2.60;;;1.33;;
74904;SDS011;63465;50.862;6.220;2023-03-23T08:59:36;3.60;;;1.73;;
74904;SDS011;63465;50.862;6.220;2023-03-23T09:02:29;4.23;;;2.43;;
74904;SDS011;63465;50.862;6.220;2023-03-23T09:05:13;5.20;;;1.37;;
74904;SDS011;63465;50.862;6.220;2023-03-23T09:07:57;1.30;;;1.20;;
74904;SDS011;63465;50.862;6.220;2023-03-23T09:10:24;4.77;;;1.77;;
74904;SDS011;63465;50.862;6.220;2023-03-23T09:12:53;4.10;;;1.43;;
74904;SDS011;63465;50.862;6.220;2023-03-23T09:15:20;2.03;;;1.50;;
74904;SDS011;63465;50.862;6.220;2023-03-23T09:17:48;2.20;;;1.33;;
74904;SDS011;63465;50.862;6.220;2023-03-23T09:20:17;4.23;;;1.23;;
74904;SDS011;63465;50.862;6.220;2023-03-23T09:22:46;5.03;;;1.60;;
74904;SDS011;63465;50.862;6.220;2023-03-23T09:25:17;2.87;;;1.70;;
74904;SDS011;63465;50.862;6.220;2023-03-23T09:27:48;1.50;;;1.23;;
74904;SDS011;63465;50.862;6.220;2023-03-23T09:30:17;1.83;;;1.17;;
74904;SDS011;63465;50.862;6.220;2023-03-23T09:32:45;4.87;;;1.20;;
74904;SDS011;63465;50.862;6.220;2023-03-23T09:35:13;1.40;;;1.30;;
74904;SDS011;63465;50.862;6.220;2023-03-23T09:37:41;1.20;;;1.10;;
74904;SDS011;63465;50.862;6.220;2023-03-23T09:40:10;2.50;;;1.40;;
74904;SDS011;63465;50.862;6.220;2023-03-23T09:42:44;4.97;;;1.20;;
74904;SDS011;63465;50.862;6.220;2023-03-23T09:45:19;2.40;;;1.30;;
74904;SDS011;63465;50.862;6.220;2023-03-23T09:50:51;1.20;;;1.10;;
74904;SDS011;63465;50.862;6.220;2023-03-23T09:53:30;2.20;;;1.43;;
74904;SDS011;63465;50.862;6.220;2023-03-23T09:56:03;2.40;;;1.20;;
74904;SDS011;63465;50.862;6.220;2023-03-23T09:58:39;1.20;;;1.10;;
74904;SDS011;63465;50.862;6.220;2023-03-23T10:01:13;4.30;;;1.03;;
74904;SDS011;63465;50.862;6.220;2023-03-23T10:03:44;2.13;;;1.00;;
74904;SDS011;63465;50.862;6.220;2023-03-23T10:06:13;1.83;;;1.00;;
74904;SDS011;63465;50.862;6.220;2023-03-23T10:08:43;1.10;;;1.10;;
74904;SDS011;63465;50.862;6.220;2023-03-23T10:11:12;2.50;;;1.10;;
74904;SDS011;63465;50.862;6.220;2023-03-23T10:14:02;1.10;;;1.00;;
74904;SDS011;63465;50.862;6.220;2023-03-23T10:16:38;2.30;;;1.10;;
74904;SDS011;63465;50.862;6.220;2023-03-23T10:19:10;2.40;;;1.10;;
74904;SDS011;63465;50.862;6.220;2023-03-23T10:21:41;7.10;;;1.47;;
74904;SDS011;63465;50.862;6.220;2023-03-23T10:24:13;1.60;;;0.97;;
74904;SDS011;63465;50.862;6.220;2023-03-23T10:26:44;2.10;;;1.00;;
74904;SDS011;63465;50.862;6.220;2023-03-23T10:29:24;2.87;;;0.90;;
74904;SDS011;63465;50.862;6.220;2023-03-23T10:31:58;2.50;;;1.23;;
74904;SDS011;63465;50.862;6.220;2023-03-23T10:34:28;5.53;;;1.50;;
74904;SDS011;63465;50.862;6.220;2023-03-23T10:37:01;1.37;;;1.20;;
74904;SDS011;63465;50.862;6.220;2023-03-23T10:39:32;2.83;;;1.17;;
74904;SDS011;63465;50.862;6.220;2023-03-23T10:42:07;1.63;;;1.07;;
74904;SDS011;63465;50.862;6.220;2023-03-23T10:44:36;1.77;;;1.17;;
74904;SDS011;63465;50.862;6.220;2023-03-23T10:47:04;3.57;;;1.27;;
74904;SDS011;63465;50.862;6.220;2023-03-23T10:49:34;1.10;;;1.00;;
74904;SDS011;63465;50.862;6.220;2023-03-23T10:52:09;7.73;;;1.47;;
74904;SDS011;63465;50.862;6.220;2023-03-23T10:54:46;2.60;;;1.40;;
74904;SDS011;63465;50.862;6.220;2023-03-23T10:57:22;1.40;;;1.10;;
74904;SDS011;63465;50.862;6.220;2023-03-23T10:59:58;1.40;;;1.30;;
74904;SDS011;63465;50.862;6.220;2023-03-23T11:02:31;1.43;;;0.90;;
74904;SDS011;63465;50.862;6.220;2023-03-23T11:05:02;1.83;;;1.23;;
74904;SDS011;63465;50.862;6.220;2023-03-23T11:07:33;2.90;;;1.17;;
74904;SDS011;63465;50.862;6.220;2023-03-23T11:10:06;1.20;;;0.87;;
74904;SDS011;63465;50.862;6.220;2023-03-23T11:12:43;2.63;;;1.00;;
74904;SDS011;63465;50.862;6.220;2023-03-23T11:15:16;1.37;;;1.20;;
74904;SDS011;63465;50.862;6.220;2023-03-23T11:17:56;1.23;;;1.13;;
74904;SDS011;63465;50.862;6.220;2023-03-23T11:20:28;2.77;;;0.90;;
74904;SDS011;63465;50.862;6.220;2023-03-23T11:22:56;1.33;;;1.07;;
74904;SDS011;63465;50.862;6.220;2023-03-23T11:25:23;0.80;;;0.80;;
74904;SDS011;63465;50.862;6.220;2023-03-23T11:27:52;1.47;;;1.23;;
74904;SDS011;63465;50.862;6.220;2023-03-23T11:30:22;1.17;;;0.90;;
74904;SDS011;63465;50.862;6.220;2023-03-23T11:32:52;4.13;;;1.57;;
74904;SDS011;63465;50.862;6.220;2023-03-23T11:35:21;1.53;;;1.13;;
74904;SDS011;63465;50.862;6.220;2023-03-23T11:37:51;3.33;;;1.60;;
74904;SDS011;63465;50.862;6.220;2023-03-23T11:40:21;1.73;;;1.20;;
74904;SDS011;63465;50.862;6.220;2023-03-23T11:42:50;1.13;;;1.07;;
74904;SDS011;63465;50.862;6.220;2023-03-23T11:45:30;1.43;;;1.10;;
74904;SDS011;63465;50.862;6.220;2023-03-23T11:48:01;1.13;;;0.90;;
74904;SDS011;63465;50.862;6.220;2023-03-23T11:50:43;1.53;;;1.00;;
74904;SDS011;63465;50.862;6.220;2023-03-23T11:53:15;3.17;;;1.30;;
74904;SDS011;63465;50.862;6.220;2023-03-23T11:55:52;4.57;;;1.60;;
74904;SDS011;63465;50.862;6.220;2023-03-23T11:58:25;2.40;;;1.43;;
74904;SDS011;63465;50.862;6.220;2023-03-23T12:01:00;3.07;;;1.70;;
74904;SDS011;63465;50.862;6.220;2023-03-23T12:03:37;1.60;;;0.90;;
74904;SDS011;63465;50.862;6.220;2023-03-23T12:06:19;2.10;;;1.30;;
74904;SDS011;63465;50.862;6.220;2023-03-23T12:08:59;1.63;;;1.30;;
74904;SDS011;63465;50.862;6.220;2023-03-23T12:11:37;4.33;;;1.40;;
74904;SDS011;63465;50.862;6.220;2023-03-23T12:14:14;1.60;;;1.30;;
74904;SDS011;63465;50.862;6.220;2023-03-23T12:16:53;1.23;;;1.23;;
74904;SDS011;63465;50.862;6.220;2023-03-23T12:19:28;3.57;;;1.30;;
74904;SDS011;63465;50.862;6.220;2023-03-23T12:22:04;2.50;;;1.33;;
74904;SDS011;63465;50.862;6.220;2023-03-23T12:24:46;2.10;;;1.40;;
74904;SDS011;63465;50.862;6.220;2023-03-23T12:27:23;1.30;;;1.17;;
74904;SDS011;63465;50.862;6.220;2023-03-23T12:32:58;1.90;;;1.20;;
74904;SDS011;63465;50.862;6.220;2023-03-23T12:35:37;3.50;;;1.20;;
74904;SDS011;63465;50.862;6.220;2023-03-23T12:38:28;1.30;;;1.20;;
74904;SDS011;63465;50.862;6.220;2023-03-23T12:41:10;1.13;;;1.03;;
74904;SDS011;63465;50.862;6.220;2023-03-23T12:43:45;5.57;;;1.50;;
74904;SDS011;63465;50.862;6.220;2023-03-23T12:46:22;2.20;;;1.60;;
74904;SDS011;63465;50.862;6.220;2023-03-23T12:49:01;3.67;;;1.80;;
74904;SDS011;63465;50.862;6.220;2023-03-23T12:51:33;3.00;;;1.40;;
74904;SDS011;63465;50.862;6.220;2023-03-23T12:54:07;1.30;;;1.20;;
74904;SDS011;63465;50.862;6.220;2023-03-23T12:56:39;1.53;;;1.30;;
74904;SDS011;63465;50.862;6.220;2023-03-23T12:59:13;1.57;;;1.47;;
74904;SDS011;63465;50.862;6.220;2023-03-23T13:01:46;1.70;;;1.30;;
74904;SDS011;63465;50.862;6.220;2023-03-23T13:04:18;2.40;;;1.47;;
74904;SDS011;63465;50.862;6.220;2023-03-23T13:06:49;1.63;;;1.53;;
74904;SDS011;63465;50.862;6.220;2023-03-23T13:09:17;1.10;;;1.00;;
74904;SDS011;63465;50.862;6.220;2023-03-23T13:11:47;9.60;;;1.50;;
74904;SDS011;63465;50.862;6.220;2023-03-23T13:14:24;3.60;;;1.67;;
74904;SDS011;63465;50.862;6.220;2023-03-23T13:17:03;1.67;;;1.23;;
74904;SDS011;63465;50.862;6.220;2023-03-23T13:19:51;2.40;;;1.50;;
74904;SDS011;63465;50.862;6.220;2023-03-23T13:22:37;4.40;;;2.00;;
74904;SDS011;63465;50.862;6.220;2023-03-23T13:25:08;3.07;;;1.77;;
74904;SDS011;63465;50.862;6.220;2023-03-23T13:27:41;2.37;;;1.80;;
74904;SDS011;63465;50.862;6.220;2023-03-23T13:30:17;4.50;;;1.77;;
74904;SDS011;63465;50.862;6.220;2023-03-23T13:32:49;3.63;;;2.20;;
74904;SDS011;63465;50.862;6.220;2023-03-23T13:35:19;3.40;;;1.70;;
74904;SDS011;63465;50.862;6.220;2023-03-23T13:37:47;8.10;;;1.80;;
74904;SDS011;63465;50.862;6.220;2023-03-23T13:40:20;10.40;;;1.80;;
74904;SDS011;63465;50.862;6.220;2023-03-23T13:42:53;3.23;;;1.90;;
74904;SDS011;63465;50.862;6.220;2023-03-23T13:45:22;6.47;;;2.70;;
74904;SDS011;63465;50.862;6.220;2023-03-23T13:47:50;4.10;;;1.50;;
74904;SDS011;63465;50.862;6.220;2023-03-23T13:50:31;3.77;;;2.03;;
74904;SDS011;63465;50.862;6.220;2023-03-23T13:53:13;7.70;;;2.03;;
74904;SDS011;63465;50.862;6.220;2023-03-23T13:55:48;4.77;;;2.03;;
74904;SDS011;63465;50.862;6.220;2023-03-23T13:58:23;2.40;;;1.70;;
74904;SDS011;63465;50.862;6.220;2023-03-23T14:01:01;10.70;;;3.07;;
74904;SDS011;63465;50.862;6.220;2023-03-23T14:03:38;6.57;;;2.00;;
74904;SDS011;63465;50.862;6.220;2023-03-23T14:06:10;3.00;;;2.10;;
74904;SDS011;63465;50.862;6.220;2023-03-23T14:09:04;3.70;;;2.47;;
74904;SDS011;63465;50.862;6.220;2023-03-23T14:11:34;3.77;;;2.03;;
74904;SDS011;63465;50.862;6.220;2023-03-23T14:14:14;6.50;;;1.97;;
74904;SDS011;63465;50.862;6.220;2023-03-23T14:16:49;2.03;;;1.60;;
74904;SDS011;63465;50.862;6.220;2023-03-23T14:19:18;2.40;;;1.90;;
74904;SDS011;63465;50.862;6.220;2023-03-23T14:21:52;2.60;;;1.80;;
74904;SDS011;63465;50.862;6.220;2023-03-23T14:24:21;2.70;;;1.90;;
74904;SDS011;63465;50.862;6.220;2023-03-23T14:26:50;1.60;;;1.50;;
74904;SDS011;63465;50.862;6.220;2023-03-23T14:29:19;4.83;;;1.73;;
74904;SDS011;63465;50.862;6.220;2023-03-23T14:31:48;4.50;;;1.80;;
74904;SDS011;63465;50.862;6.220;2023-03-23T14:34:20;6.00;;;2.10;;
74904;SDS011;63465;50.862;6.220;2023-03-23T14:36:49;3.13;;;1.90;;
74904;SDS011;63465;50.862;6.220;2023-03-23T14:39:20;4.67;;;1.40;;
74904;SDS011;63465;50.862;6.220;2023-03-23T14:41:50;7.10;;;2.43;;
74904;SDS011;63465;50.862;6.220;2023-03-23T14:44:21;10.80;;;2.07;;
74904;SDS011;63465;50.862;6.220;2023-03-23T14:46:51;3.13;;;2.10;;
74904;SDS011;63465;50.862;6.220;2023-03-23T14:49:22;5.27;;;1.83;;
74904;SDS011;63465;50.862;6.220;2023-03-23T14:51:55;3.77;;;2.03;;
74904;SDS011;63465;50.862;6.220;2023-03-23T14:54:23;2.90;;;1.60;;
74904;SDS011;63465;50.862;6.220;2023-03-23T14:56:51;10.20;;;1.97;;
74904;SDS011;63465;50.862;6.220;2023-03-23T14:59:18;7.73;;;1.67;;
74904;SDS011;63465;50.862;6.220;2023-03-23T15:01:45;8.27;;;1.57;;
74904;SDS011;63465;50.862;6.220;2023-03-23T15:04:14;3.00;;;1.83;;
74904;SDS011;63465;50.862;6.220;2023-03-23T15:06:47;3.30;;;2.20;;
74904;SDS011;63465;50.862;6.220;2023-03-23T15:09:18;2.13;;;1.60;;
74904;SDS011;63465;50.862;6.220;2023-03-23T15:11:51;2.93;;;1.97;;
74904;SDS011;63465;50.862;6.220;2023-03-23T15:14:22;3.90;;;1.60;;
74904;SDS011;63465;50.862;6.220;2023-03-23T15:16:50;2.40;;;1.80;;
74904;SDS011;63465;50.862;6.220;2023-03-23T15:19:19;3.60;;;2.00;;
74904;SDS011;63465;50.862;6.220;2023-03-23T15:21:50;7.40;;;1.90;;
74904;SDS011;63465;50.862;6.220;2023-03-23T15:24:21;2.23;;;1.43;;
74904;SDS011;63465;50.862;6.220;2023-03-23T15:26:52;2.30;;;1.70;;
74904;SDS011;63465;50.862;6.220;2023-03-23T15:29:20;5.90;;;1.60;;
74904;SDS011;63465;50.862;6.220;2023-03-23T15:31:50;4.93;;;1.43;;
74904;SDS011;63465;50.862;6.220;2023-03-23T15:34:25;3.43;;;1.87;;